sensor_id;sensor_type;location;lat;lon;timestamp;P1;durP1;ratioP1;P2;durP2;ratioP2
58196;SDS011;43999;51.660;5.616;2022-10-17T00:01:02;10.05;;;9.07;;
58196;SDS011;43999;51.660;5.616;2022-10-17T00:03:32;10.45;;;8.90;;
58196;SDS011;43999;51.660;5.616;2022-10-17T00:06:06;11.27;;;8.90;;
58196;SDS011;43999;51.660;5.616;2022-10-17T00:08:40;10.82;;;9.25;;
58196;SDS011;43999;51.660;5.616;2022-10-17T00:11:14;11.80;;;9.75;;
58196;SDS011;43999;51.660;5.616;2022-10-17T00:13:50;10.55;;;9.00;;
58196;SDS011;43999;51.660;5.616;2022-10-17T00:16:22;14.48;;;9.73;;
58196;SDS011;43999;51.660;5.616;2022-10-17T00:19:03;9.57;;;8.60;;
58196;SDS011;43999;51.660;5.616;2022-10-17T00:21:33;11.98;;;10.68;;
58196;SDS011;43999;51.660;5.616;2022-10-17T00:24:00;10.00;;;8.93;;
58196;SDS011;43999;51.660;5.616;2022-10-17T00:26:28;10.07;;;9.07;;
58196;SDS011;43999;51.660;5.616;2022-10-17T00:28:55;10.70;;;9.60;;
58196;SDS011;43999;51.660;5.616;2022-10-17T00:31:23;10.05;;;9.02;;
58196;SDS011;43999;51.660;5.616;2022-10-17T00:33:50;9.25;;;8.35;;
58196;SDS011;43999;51.660;5.616;2022-10-17T00:36:22;12.55;;;9.95;;
58196;SDS011;43999;51.660;5.616;2022-10-17T00:38:55;11.77;;;10.55;;
58196;SDS011;43999;51.660;5.616;2022-10-17T00:41:26;10.65;;;9.55;;
58196;SDS011;43999;51.660;5.616;2022-10-17T00:46:56;10.98;;;9.43;;
58196;SDS011;43999;51.660;5.616;2022-10-17T00:49:29;11.10;;;9.73;;
58196;SDS011;43999;51.660;5.616;2022-10-17T00:52:03;11.02;;;9.00;;
58196;SDS011;43999;51.660;5.616;2022-10-17T00:54:57;11.18;;;10.05;;
58196;SDS011;43999;51.660;5.616;2022-10-17T00:58:02;11.93;;;10.80;;
58196;SDS011;43999;51.660;5.616;2022-10-17T01:00:32;13.05;;;10.93;;
58196;SDS011;43999;51.660;5.616;2022-10-17T01:02:59;11.40;;;10.23;;
58196;SDS011;43999;51.660;5.616;2022-10-17T01:05:27;10.38;;;9.38;;
58196;SDS011;43999;51.660;5.616;2022-10-17T01:07:55;11.73;;;10.02;;
58196;SDS011;43999;51.660;5.616;2022-10-17T01:10:25;11.90;;;10.50;;
58196;SDS011;43999;51.660;5.616;2022-10-17T01:13:12;11.55;;;10.45;;
58196;SDS011;43999;51.660;5.616;2022-10-17T01:23:00;12.38;;;10.88;;
58196;SDS011;43999;51.660;5.616;2022-10-17T01:29:16;12.65;;;10.95;;
58196;SDS011;43999;51.660;5.616;2022-10-17T01:32:44;12.60;;;11.30;;
58196;SDS011;43999;51.660;5.616;2022-10-17T01:48:08;12.98;;;11.73;;
58196;SDS011;43999;51.660;5.616;2022-10-17T01:50:52;13.05;;;11.75;;
58196;SDS011;43999;51.660;5.616;2022-10-17T01:53:42;12.18;;;10.20;;
58196;SDS011;43999;51.660;5.616;2022-10-17T01:56:20;13.05;;;11.48;;
58196;SDS011;43999;51.660;5.616;2022-10-17T01:58:56;13.93;;;12.43;;
58196;SDS011;43999;51.660;5.616;2022-10-17T02:01:38;13.30;;;11.98;;
58196;SDS011;43999;51.660;5.616;2022-10-17T02:04:10;13.23;;;11.98;;
58196;SDS011;43999;51.660;5.616;2022-10-17T02:06:37;12.68;;;11.48;;
58196;SDS011;43999;51.660;5.616;2022-10-17T02:09:20;14.35;;;12.85;;
58196;SDS011;43999;51.660;5.616;2022-10-17T02:20:48;13.95;;;12.50;;
58196;SDS011;43999;51.660;5.616;2022-10-17T02:26:31;14.65;;;13.18;;
58196;SDS011;43999;51.660;5.616;2022-10-17T02:29:22;16.02;;;12.63;;
58196;SDS011;43999;51.660;5.616;2022-10-17T02:32:11;15.07;;;13.52;;
58196;SDS011;43999;51.660;5.616;2022-10-17T02:34:56;14.13;;;12.73;;
58196;SDS011;43999;51.660;5.616;2022-10-17T02:37:29;14.13;;;12.68;;
58196;SDS011;43999;51.660;5.616;2022-10-17T02:39:59;13.40;;;12.15;;
58196;SDS011;43999;51.660;5.616;2022-10-17T02:42:29;13.10;;;11.70;;
58196;SDS011;43999;51.660;5.616;2022-10-17T02:44:59;14.95;;;12.40;;
58196;SDS011;43999;51.660;5.616;2022-10-17T02:52:54;12.85;;;11.55;;
58196;SDS011;43999;51.660;5.616;2022-10-17T02:55:38;13.63;;;12.07;;
58196;SDS011;43999;51.660;5.616;2022-10-17T02:58:26;13.55;;;12.30;;
58196;SDS011;43999;51.660;5.616;2022-10-17T03:01:00;13.93;;;12.60;;
58196;SDS011;43999;51.660;5.616;2022-10-17T03:03:28;15.15;;;11.55;;
58196;SDS011;43999;51.660;5.616;2022-10-17T03:06:00;15.20;;;13.60;;
58196;SDS011;43999;51.660;5.616;2022-10-17T03:08:27;17.73;;;12.23;;
58196;SDS011;43999;51.660;5.616;2022-10-17T03:10:55;13.82;;;12.45;;
58196;SDS011;43999;51.660;5.616;2022-10-17T03:13:24;13.82;;;12.38;;
58196;SDS011;43999;51.660;5.616;2022-10-17T03:15:51;14.40;;;13.10;;
58196;SDS011;43999;51.660;5.616;2022-10-17T03:18:18;15.55;;;13.82;;
58196;SDS011;43999;51.660;5.616;2022-10-17T03:20:47;13.45;;;12.00;;
58196;SDS011;43999;51.660;5.616;2022-10-17T03:23:15;12.63;;;11.32;;
58196;SDS011;43999;51.660;5.616;2022-10-17T03:25:43;14.45;;;12.95;;
58196;SDS011;43999;51.660;5.616;2022-10-17T03:28:12;13.45;;;12.02;;
58196;SDS011;43999;51.660;5.616;2022-10-17T03:30:39;14.55;;;12.73;;
58196;SDS011;43999;51.660;5.616;2022-10-17T03:33:07;14.50;;;13.10;;
58196;SDS011;43999;51.660;5.616;2022-10-17T03:35:37;14.73;;;12.55;;
58196;SDS011;43999;51.660;5.616;2022-10-17T03:38:06;14.13;;;12.77;;
58196;SDS011;43999;51.660;5.616;2022-10-17T03:40:33;15.45;;;12.05;;
58196;SDS011;43999;51.660;5.616;2022-10-17T03:43:02;13.75;;;12.35;;
58196;SDS011;43999;51.660;5.616;2022-10-17T03:45:30;14.63;;;13.23;;
58196;SDS011;43999;51.660;5.616;2022-10-17T03:47:58;15.10;;;12.30;;
58196;SDS011;43999;51.660;5.616;2022-10-17T03:50:25;12.40;;;11.02;;
58196;SDS011;43999;51.660;5.616;2022-10-17T03:52:54;14.63;;;11.73;;
58196;SDS011;43999;51.660;5.616;2022-10-17T03:55:21;13.07;;;11.88;;
58196;SDS011;43999;51.660;5.616;2022-10-17T03:57:49;14.25;;;12.85;;
58196;SDS011;43999;51.660;5.616;2022-10-17T04:00:19;12.52;;;11.43;;
58196;SDS011;43999;51.660;5.616;2022-10-17T04:02:53;13.63;;;11.55;;
58196;SDS011;43999;51.660;5.616;2022-10-17T04:05:20;12.95;;;11.63;;
58196;SDS011;43999;51.660;5.616;2022-10-17T04:07:47;15.90;;;13.48;;
58196;SDS011;43999;51.660;5.616;2022-10-17T04:10:17;14.93;;;13.57;;
58196;SDS011;43999;51.660;5.616;2022-10-17T04:12:45;14.70;;;12.88;;
58196;SDS011;43999;51.660;5.616;2022-10-17T04:15:16;13.27;;;12.07;;
58196;SDS011;43999;51.660;5.616;2022-10-17T04:17:44;14.07;;;12.65;;
58196;SDS011;43999;51.660;5.616;2022-10-17T04:20:15;15.77;;;13.32;;
58196;SDS011;43999;51.660;5.616;2022-10-17T04:22:42;13.75;;;12.55;;
58196;SDS011;43999;51.660;5.616;2022-10-17T04:25:11;13.80;;;12.35;;
58196;SDS011;43999;51.660;5.616;2022-10-17T04:27:41;12.52;;;11.02;;
58196;SDS011;43999;51.660;5.616;2022-10-17T04:30:09;12.38;;;11.15;;
58196;SDS011;43999;51.660;5.616;2022-10-17T04:32:37;13.98;;;11.18;;
58196;SDS011;43999;51.660;5.616;2022-10-17T04:35:22;14.70;;;12.75;;
58196;SDS011;43999;51.660;5.616;2022-10-17T04:37:57;12.98;;;11.60;;
58196;SDS011;43999;51.660;5.616;2022-10-17T04:40:27;12.45;;;10.77;;
58196;SDS011;43999;51.660;5.616;2022-10-17T04:42:54;12.45;;;11.25;;
58196;SDS011;43999;51.660;5.616;2022-10-17T04:45:29;13.57;;;9.70;;
58196;SDS011;43999;51.660;5.616;2022-10-17T04:48:01;11.55;;;9.63;;
58196;SDS011;43999;51.660;5.616;2022-10-17T04:50:28;12.68;;;10.90;;
58196;SDS011;43999;51.660;5.616;2022-10-17T04:53:29;11.50;;;10.30;;
58196;SDS011;43999;51.660;5.616;2022-10-17T04:55:59;11.38;;;10.32;;
58196;SDS011;43999;51.660;5.616;2022-10-17T04:58:32;11.35;;;10.20;;
58196;SDS011;43999;51.660;5.616;2022-10-17T05:01:03;11.07;;;9.98;;
58196;SDS011;43999;51.660;5.616;2022-10-17T05:03:36;10.80;;;9.30;;
58196;SDS011;43999;51.660;5.616;2022-10-17T05:06:06;12.63;;;9.43;;
58196;SDS011;43999;51.660;5.616;2022-10-17T05:08:45;12.88;;;9.32;;
58196;SDS011;43999;51.660;5.616;2022-10-17T05:11:20;16.75;;;9.52;;
58196;SDS011;43999;51.660;5.616;2022-10-17T05:13:58;13.38;;;10.15;;
58196;SDS011;43999;51.660;5.616;2022-10-17T05:16:29;11.60;;;10.40;;
58196;SDS011;43999;51.660;5.616;2022-10-17T05:18:57;10.50;;;9.27;;
58196;SDS011;43999;51.660;5.616;2022-10-17T05:21:30;10.63;;;9.30;;
58196;SDS011;43999;51.660;5.616;2022-10-17T05:23:58;10.98;;;9.88;;
58196;SDS011;43999;51.660;5.616;2022-10-17T05:26:25;12.13;;;10.95;;
58196;SDS011;43999;51.660;5.616;2022-10-17T05:28:54;10.73;;;9.15;;
58196;SDS011;43999;51.660;5.616;2022-10-17T05:31:23;10.60;;;9.68;;
58196;SDS011;43999;51.660;5.616;2022-10-17T05:33:51;12.20;;;9.35;;
58196;SDS011;43999;51.660;5.616;2022-10-17T05:36:20;12.68;;;9.60;;
58196;SDS011;43999;51.660;5.616;2022-10-17T05:38:49;13.25;;;10.23;;
58196;SDS011;43999;51.660;5.616;2022-10-17T05:41:17;10.48;;;9.27;;
58196;SDS011;43999;51.660;5.616;2022-10-17T05:43:46;10.75;;;9.65;;
58196;SDS011;43999;51.660;5.616;2022-10-17T05:46:19;10.40;;;9.40;;
58196;SDS011;43999;51.660;5.616;2022-10-17T05:48:47;10.45;;;9.45;;
58196;SDS011;43999;51.660;5.616;2022-10-17T05:51:15;9.82;;;8.82;;
58196;SDS011;43999;51.660;5.616;2022-10-17T05:53:42;12.07;;;9.35;;
58196;SDS011;43999;51.660;5.616;2022-10-17T05:56:15;14.25;;;10.10;;
58196;SDS011;43999;51.660;5.616;2022-10-17T05:58:42;11.55;;;9.75;;
58196;SDS011;43999;51.660;5.616;2022-10-17T06:01:37;10.77;;;9.63;;
58196;SDS011;43999;51.660;5.616;2022-10-17T06:04:04;13.70;;;9.95;;
58196;SDS011;43999;51.660;5.616;2022-10-17T06:06:31;11.68;;;9.82;;
58196;SDS011;43999;51.660;5.616;2022-10-17T06:09:02;9.63;;;8.77;;
58196;SDS011;43999;51.660;5.616;2022-10-17T06:11:34;11.30;;;9.90;;
58196;SDS011;43999;51.660;5.616;2022-10-17T06:14:03;11.18;;;10.05;;
58196;SDS011;43999;51.660;5.616;2022-10-17T06:16:31;11.10;;;8.65;;
58196;SDS011;43999;51.660;5.616;2022-10-17T06:18:58;8.82;;;7.93;;
58196;SDS011;43999;51.660;5.616;2022-10-17T06:21:26;11.55;;;9.85;;
58196;SDS011;43999;51.660;5.616;2022-10-17T06:24:04;10.77;;;9.75;;
58196;SDS011;43999;51.660;5.616;2022-10-17T06:26:34;11.10;;;9.88;;
58196;SDS011;43999;51.660;5.616;2022-10-17T06:29:04;14.75;;;9.75;;
58196;SDS011;43999;51.660;5.616;2022-10-17T06:31:35;12.38;;;10.48;;
58196;SDS011;43999;51.660;5.616;2022-10-17T06:34:02;11.45;;;9.35;;
58196;SDS011;43999;51.660;5.616;2022-10-17T06:36:30;10.20;;;8.50;;
58196;SDS011;43999;51.660;5.616;2022-10-17T06:38:57;10.45;;;9.25;;
58196;SDS011;43999;51.660;5.616;2022-10-17T06:41:57;14.68;;;9.23;;
58196;SDS011;43999;51.660;5.616;2022-10-17T06:44:42;15.45;;;11.63;;
58196;SDS011;43999;51.660;5.616;2022-10-17T06:47:21;10.05;;;8.93;;
58196;SDS011;43999;51.660;5.616;2022-10-17T06:49:51;10.73;;;8.85;;
58196;SDS011;43999;51.660;5.616;2022-10-17T06:52:37;10.23;;;9.23;;
58196;SDS011;43999;51.660;5.616;2022-10-17T06:55:24;10.52;;;9.52;;
58196;SDS011;43999;51.660;5.616;2022-10-17T06:58:11;11.25;;;9.18;;
58196;SDS011;43999;51.660;5.616;2022-10-17T07:00:43;10.65;;;9.10;;
58196;SDS011;43999;51.660;5.616;2022-10-17T07:03:11;12.27;;;8.95;;
58196;SDS011;43999;51.660;5.616;2022-10-17T07:05:38;9.68;;;8.48;;
58196;SDS011;43999;51.660;5.616;2022-10-17T07:08:06;9.30;;;8.40;;
58196;SDS011;43999;51.660;5.616;2022-10-17T07:10:36;19.73;;;9.60;;
58196;SDS011;43999;51.660;5.616;2022-10-17T07:13:05;9.82;;;8.82;;
58196;SDS011;43999;51.660;5.616;2022-10-17T07:15:35;11.07;;;8.98;;
58196;SDS011;43999;51.660;5.616;2022-10-17T07:18:04;10.90;;;9.57;;
58196;SDS011;43999;51.660;5.616;2022-10-17T07:20:32;10.82;;;9.52;;
58196;SDS011;43999;51.660;5.616;2022-10-17T07:22:59;10.48;;;8.68;;
58196;SDS011;43999;51.660;5.616;2022-10-17T07:25:27;9.70;;;8.48;;
58196;SDS011;43999;51.660;5.616;2022-10-17T07:27:58;9.23;;;8.38;;
58196;SDS011;43999;51.660;5.616;2022-10-17T07:30:27;9.57;;;8.50;;
58196;SDS011;43999;51.660;5.616;2022-10-17T07:33:02;11.65;;;8.50;;
58196;SDS011;43999;51.660;5.616;2022-10-17T07:35:29;10.93;;;8.85;;
58196;SDS011;43999;51.660;5.616;2022-10-17T07:37:57;10.55;;;8.25;;
58196;SDS011;43999;51.660;5.616;2022-10-17T07:40:25;9.93;;;8.82;;
58196;SDS011;43999;51.660;5.616;2022-10-17T07:42:52;10.20;;;8.77;;
58196;SDS011;43999;51.660;5.616;2022-10-17T07:45:23;9.63;;;8.43;;
58196;SDS011;43999;51.660;5.616;2022-10-17T07:47:56;12.32;;;8.70;;
58196;SDS011;43999;51.660;5.616;2022-10-17T07:50:23;9.27;;;8.38;;
58196;SDS011;43999;51.660;5.616;2022-10-17T07:52:51;9.98;;;8.98;;
58196;SDS011;43999;51.660;5.616;2022-10-17T07:55:18;9.02;;;7.82;;
58196;SDS011;43999;51.660;5.616;2022-10-17T07:57:48;11.07;;;8.02;;
58196;SDS011;43999;51.660;5.616;2022-10-17T08:00:16;12.15;;;9.23;;
58196;SDS011;43999;51.660;5.616;2022-10-17T08:02:44;8.60;;;7.82;;
58196;SDS011;43999;51.660;5.616;2022-10-17T08:05:11;11.00;;;9.80;;
58196;SDS011;43999;51.660;5.616;2022-10-17T08:07:38;9.20;;;8.10;;
58196;SDS011;43999;51.660;5.616;2022-10-17T08:10:07;10.02;;;9.02;;
58196;SDS011;43999;51.660;5.616;2022-10-17T08:12:37;10.13;;;9.07;;
58196;SDS011;43999;51.660;5.616;2022-10-17T08:15:05;8.88;;;7.88;;
58196;SDS011;43999;51.660;5.616;2022-10-17T08:17:36;15.30;;;8.63;;
58196;SDS011;43999;51.660;5.616;2022-10-17T08:20:05;9.57;;;7.75;;
58196;SDS011;43999;51.660;5.616;2022-10-17T08:22:33;14.02;;;10.27;;
58196;SDS011;43999;51.660;5.616;2022-10-17T08:25:00;12.82;;;8.50;;
58196;SDS011;43999;51.660;5.616;2022-10-17T08:27:31;8.75;;;7.85;;
58196;SDS011;43999;51.660;5.616;2022-10-17T08:29:59;9.30;;;8.38;;
58196;SDS011;43999;51.660;5.616;2022-10-17T08:32:27;9.23;;;8.32;;
58196;SDS011;43999;51.660;5.616;2022-10-17T08:34:55;9.75;;;8.05;;
58196;SDS011;43999;51.660;5.616;2022-10-17T08:37:23;9.35;;;8.43;;
58196;SDS011;43999;51.660;5.616;2022-10-17T08:39:50;9.82;;;8.55;;
58196;SDS011;43999;51.660;5.616;2022-10-17T08:48:11;11.52;;;9.63;;
58196;SDS011;43999;51.660;5.616;2022-10-17T08:50:49;12.75;;;10.63;;
58196;SDS011;43999;51.660;5.616;2022-10-17T08:56:32;13.20;;;10.50;;
58196;SDS011;43999;51.660;5.616;2022-10-17T08:59:24;10.00;;;9.10;;
58196;SDS011;43999;51.660;5.616;2022-10-17T09:02:16;10.73;;;9.15;;
58196;SDS011;43999;51.660;5.616;2022-10-17T09:08:21;10.57;;;9.35;;
58196;SDS011;43999;51.660;5.616;2022-10-17T09:17:49;12.07;;;9.93;;
58196;SDS011;43999;51.660;5.616;2022-10-17T09:20:51;12.35;;;11.15;;
58196;SDS011;43999;51.660;5.616;2022-10-17T09:23:49;13.07;;;10.27;;
58196;SDS011;43999;51.660;5.616;2022-10-17T09:26:36;11.65;;;10.43;;
58196;SDS011;43999;51.660;5.616;2022-10-17T09:29:12;14.98;;;11.48;;
58196;SDS011;43999;51.660;5.616;2022-10-17T09:32:07;19.42;;;11.98;;
58196;SDS011;43999;51.660;5.616;2022-10-17T09:34:44;12.55;;;11.35;;
58196;SDS011;43999;51.660;5.616;2022-10-17T09:37:12;16.67;;;11.07;;
58196;SDS011;43999;51.660;5.616;2022-10-17T09:39:45;11.45;;;10.05;;
58196;SDS011;43999;51.660;5.616;2022-10-17T09:42:14;16.70;;;11.55;;
58196;SDS011;43999;51.660;5.616;2022-10-17T09:44:50;11.90;;;10.55;;
58196;SDS011;43999;51.660;5.616;2022-10-17T09:47:43;15.05;;;11.65;;
58196;SDS011;43999;51.660;5.616;2022-10-17T09:50:31;12.95;;;11.52;;
58196;SDS011;43999;51.660;5.616;2022-10-17T09:53:13;12.45;;;11.20;;
58196;SDS011;43999;51.660;5.616;2022-10-17T09:55:53;13.10;;;11.60;;
58196;SDS011;43999;51.660;5.616;2022-10-17T10:01:24;13.20;;;11.50;;
58196;SDS011;43999;51.660;5.616;2022-10-17T10:04:12;14.35;;;12.63;;
58196;SDS011;43999;51.660;5.616;2022-10-17T10:07:02;19.58;;;12.32;;
58196;SDS011;43999;51.660;5.616;2022-10-17T10:09:37;15.48;;;12.15;;
58196;SDS011;43999;51.660;5.616;2022-10-17T10:12:08;15.30;;;12.63;;
58196;SDS011;43999;51.660;5.616;2022-10-17T10:14:56;15.00;;;13.02;;
58196;SDS011;43999;51.660;5.616;2022-10-17T10:20:00;16.55;;;14.50;;
58196;SDS011;43999;51.660;5.616;2022-10-17T10:23:04;15.93;;;14.25;;
58196;SDS011;43999;51.660;5.616;2022-10-17T10:28:58;13.93;;;12.10;;
58196;SDS011;43999;51.660;5.616;2022-10-17T10:31:36;15.05;;;13.57;;
58196;SDS011;43999;51.660;5.616;2022-10-17T10:34:25;15.68;;;13.40;;
58196;SDS011;43999;51.660;5.616;2022-10-17T10:40:04;15.85;;;12.95;;
58196;SDS011;43999;51.660;5.616;2022-10-17T10:42:51;15.45;;;13.93;;
58196;SDS011;43999;51.660;5.616;2022-10-17T10:48:22;13.35;;;11.80;;
58196;SDS011;43999;51.660;5.616;2022-10-17T10:54:09;15.00;;;13.40;;
58196;SDS011;43999;51.660;5.616;2022-10-17T10:56:55;13.77;;;12.47;;
58196;SDS011;43999;51.660;5.616;2022-10-17T10:59:40;14.57;;;13.18;;
58196;SDS011;43999;51.660;5.616;2022-10-17T11:02:41;14.88;;;12.23;;
58196;SDS011;43999;51.660;5.616;2022-10-17T11:08:42;11.85;;;10.45;;
58196;SDS011;43999;51.660;5.616;2022-10-17T11:11:48;11.30;;;9.98;;
58196;SDS011;43999;51.660;5.616;2022-10-17T11:15:17;11.07;;;10.02;;
58196;SDS011;43999;51.660;5.616;2022-10-17T11:18:07;13.18;;;10.43;;
58196;SDS011;43999;51.660;5.616;2022-10-17T11:23:55;11.32;;;9.25;;
58196;SDS011;43999;51.660;5.616;2022-10-17T11:26:49;13.15;;;10.70;;
58196;SDS011;43999;51.660;5.616;2022-10-17T11:29:32;11.85;;;10.35;;
58196;SDS011;43999;51.660;5.616;2022-10-17T11:32:10;11.30;;;9.93;;
58196;SDS011;43999;51.660;5.616;2022-10-17T11:44:14;12.88;;;11.70;;
58196;SDS011;43999;51.660;5.616;2022-10-17T11:47:09;12.73;;;10.23;;
58196;SDS011;43999;51.660;5.616;2022-10-17T11:49:59;14.35;;;11.38;;
58196;SDS011;43999;51.660;5.616;2022-10-17T11:55:51;14.30;;;11.80;;
58196;SDS011;43999;51.660;5.616;2022-10-17T12:01:32;13.88;;;12.07;;
58196;SDS011;43999;51.660;5.616;2022-10-17T12:13:50;14.30;;;12.90;;
58196;SDS011;43999;51.660;5.616;2022-10-17T12:19:34;12.80;;;11.50;;
58196;SDS011;43999;51.660;5.616;2022-10-17T12:21:55;13.38;;;12.13;;
58196;SDS011;43999;51.660;5.616;2022-10-17T12:24:38;15.88;;;13.35;;
58196;SDS011;43999;51.660;5.616;2022-10-17T12:27:38;13.13;;;11.75;;
58196;SDS011;43999;51.660;5.616;2022-10-17T12:35:48;15.15;;;13.55;;
58196;SDS011;43999;51.660;5.616;2022-10-17T12:38:38;14.80;;;13.13;;
58196;SDS011;43999;51.660;5.616;2022-10-17T12:41:05;14.00;;;12.60;;
58196;SDS011;43999;51.660;5.616;2022-10-17T12:43:34;13.68;;;12.27;;
58196;SDS011;43999;51.660;5.616;2022-10-17T12:52:28;18.75;;;14.18;;
58196;SDS011;43999;51.660;5.616;2022-10-17T13:03:16;14.60;;;13.20;;
58196;SDS011;43999;51.660;5.616;2022-10-17T13:05:52;16.70;;;15.00;;
58196;SDS011;43999;51.660;5.616;2022-10-17T13:08:29;14.98;;;13.35;;
58196;SDS011;43999;51.660;5.616;2022-10-17T13:11:08;16.13;;;14.43;;
58196;SDS011;43999;51.660;5.616;2022-10-17T13:13:43;15.13;;;13.50;;
58196;SDS011;43999;51.660;5.616;2022-10-17T13:19:39;16.52;;;14.25;;
58196;SDS011;43999;51.660;5.616;2022-10-17T13:22:21;16.65;;;14.82;;
58196;SDS011;43999;51.660;5.616;2022-10-17T13:25:11;18.00;;;14.73;;
58196;SDS011;43999;51.660;5.616;2022-10-17T13:27:44;16.00;;;14.50;;
58196;SDS011;43999;51.660;5.616;2022-10-17T13:30:47;17.80;;;16.05;;
58196;SDS011;43999;51.660;5.616;2022-10-17T13:33:17;17.80;;;15.82;;
58196;SDS011;43999;51.660;5.616;2022-10-17T13:36:02;15.65;;;14.05;;
58196;SDS011;43999;51.660;5.616;2022-10-17T13:38:38;14.57;;;13.18;;
58196;SDS011;43999;51.660;5.616;2022-10-17T13:41:10;16.05;;;14.30;;
58196;SDS011;43999;51.660;5.616;2022-10-17T13:44:02;17.13;;;15.35;;
58196;SDS011;43999;51.660;5.616;2022-10-17T13:46:57;15.75;;;14.07;;
58196;SDS011;43999;51.660;5.616;2022-10-17T13:49:36;16.23;;;14.73;;
58196;SDS011;43999;51.660;5.616;2022-10-17T13:52:18;15.95;;;14.23;;
58196;SDS011;43999;51.660;5.616;2022-10-17T13:54:50;17.23;;;15.50;;
58196;SDS011;43999;51.660;5.616;2022-10-17T13:57:23;19.70;;;17.40;;
58196;SDS011;43999;51.660;5.616;2022-10-17T14:00:05;15.32;;;13.90;;
58196;SDS011;43999;51.660;5.616;2022-10-17T14:02:48;18.42;;;16.63;;
58196;SDS011;43999;51.660;5.616;2022-10-17T14:05:16;22.25;;;16.60;;
58196;SDS011;43999;51.660;5.616;2022-10-17T14:10:39;19.40;;;17.50;;
58196;SDS011;43999;51.660;5.616;2022-10-17T14:13:28;18.90;;;17.00;;
58196;SDS011;43999;51.660;5.616;2022-10-17T14:16:01;18.73;;;17.00;;
58196;SDS011;43999;51.660;5.616;2022-10-17T14:18:31;22.08;;;16.85;;
58196;SDS011;43999;51.660;5.616;2022-10-17T14:21:02;18.05;;;16.08;;
58196;SDS011;43999;51.660;5.616;2022-10-17T14:24:10;16.65;;;13.77;;
58196;SDS011;43999;51.660;5.616;2022-10-17T14:26:45;18.13;;;16.23;;
58196;SDS011;43999;51.660;5.616;2022-10-17T14:29:25;17.05;;;14.75;;
58196;SDS011;43999;51.660;5.616;2022-10-17T14:32:15;17.67;;;15.15;;
58196;SDS011;43999;51.660;5.616;2022-10-17T14:34:45;15.57;;;13.93;;
58196;SDS011;43999;51.660;5.616;2022-10-17T14:37:45;14.57;;;13.07;;
58196;SDS011;43999;51.660;5.616;2022-10-17T14:40:21;16.58;;;14.82;;
58196;SDS011;43999;51.660;5.616;2022-10-17T14:42:53;15.25;;;13.75;;
58196;SDS011;43999;51.660;5.616;2022-10-17T14:48:41;17.63;;;15.82;;
58196;SDS011;43999;51.660;5.616;2022-10-17T14:53:43;17.55;;;15.73;;
58196;SDS011;43999;51.660;5.616;2022-10-17T14:56:52;18.55;;;16.55;;
58196;SDS011;43999;51.660;5.616;2022-10-17T14:59:20;15.48;;;13.90;;
58196;SDS011;43999;51.660;5.616;2022-10-17T15:02:10;18.73;;;13.93;;
58196;SDS011;43999;51.660;5.616;2022-10-17T15:04:38;16.05;;;14.48;;
58196;SDS011;43999;51.660;5.616;2022-10-17T15:07:11;18.23;;;14.73;;
58196;SDS011;43999;51.660;5.616;2022-10-17T15:09:42;18.75;;;14.60;;
58196;SDS011;43999;51.660;5.616;2022-10-17T15:12:16;15.73;;;14.07;;
58196;SDS011;43999;51.660;5.616;2022-10-17T15:14:48;16.00;;;14.50;;
58196;SDS011;43999;51.660;5.616;2022-10-17T15:17:17;16.73;;;14.65;;
58196;SDS011;43999;51.660;5.616;2022-10-17T15:19:52;16.17;;;13.52;;
58196;SDS011;43999;51.660;5.616;2022-10-17T15:22:20;15.77;;;13.93;;
58196;SDS011;43999;51.660;5.616;2022-10-17T15:24:49;15.05;;;13.65;;
58196;SDS011;43999;51.660;5.616;2022-10-17T15:27:25;15.00;;;13.45;;
58196;SDS011;43999;51.660;5.616;2022-10-17T15:32:20;15.57;;;13.95;;
58196;SDS011;43999;51.660;5.616;2022-10-17T15:34:47;15.35;;;13.35;;
58196;SDS011;43999;51.660;5.616;2022-10-17T15:37:16;18.23;;;16.42;;
58196;SDS011;43999;51.660;5.616;2022-10-17T15:39:49;15.98;;;14.30;;
58196;SDS011;43999;51.660;5.616;2022-10-17T15:42:29;20.33;;;14.88;;
58196;SDS011;43999;51.660;5.616;2022-10-17T15:44:57;16.73;;;14.90;;
58196;SDS011;43999;51.660;5.616;2022-10-17T15:47:28;18.85;;;15.68;;
58196;SDS011;43999;51.660;5.616;2022-10-17T15:49:59;19.08;;;16.23;;
58196;SDS011;43999;51.660;5.616;2022-10-17T15:52:27;16.95;;;15.32;;
58196;SDS011;43999;51.660;5.616;2022-10-17T15:54:55;18.60;;;16.65;;
58196;SDS011;43999;51.660;5.616;2022-10-17T15:57:29;17.75;;;15.95;;
58196;SDS011;43999;51.660;5.616;2022-10-17T16:00:01;21.27;;;19.25;;
58196;SDS011;43999;51.660;5.616;2022-10-17T16:02:34;20.65;;;18.65;;
58196;SDS011;43999;51.660;5.616;2022-10-17T16:05:04;20.23;;;18.30;;
58196;SDS011;43999;51.660;5.616;2022-10-17T16:07:48;20.13;;;17.85;;
58196;SDS011;43999;51.660;5.616;2022-10-17T16:10:17;18.92;;;17.08;;
58196;SDS011;43999;51.660;5.616;2022-10-17T16:12:47;19.30;;;17.27;;
58196;SDS011;43999;51.660;5.616;2022-10-17T16:15:17;19.08;;;17.13;;
58196;SDS011;43999;51.660;5.616;2022-10-17T16:17:54;20.55;;;18.35;;
58196;SDS011;43999;51.660;5.616;2022-10-17T16:20:28;19.08;;;17.15;;
58196;SDS011;43999;51.660;5.616;2022-10-17T16:22:55;20.15;;;18.13;;
58196;SDS011;43999;51.660;5.616;2022-10-17T16:25:26;19.73;;;16.85;;
58196;SDS011;43999;51.660;5.616;2022-10-17T16:27:56;21.02;;;18.90;;
58196;SDS011;43999;51.660;5.616;2022-10-17T16:30:27;19.73;;;17.73;;
58196;SDS011;43999;51.660;5.616;2022-10-17T16:32:57;19.65;;;17.58;;
58196;SDS011;43999;51.660;5.616;2022-10-17T16:35:26;19.23;;;17.42;;
58196;SDS011;43999;51.660;5.616;2022-10-17T16:38:02;23.13;;;20.70;;
58196;SDS011;43999;51.660;5.616;2022-10-17T16:40:32;20.98;;;18.88;;
58196;SDS011;43999;51.660;5.616;2022-10-17T16:43:03;22.35;;;20.08;;
58196;SDS011;43999;51.660;5.616;2022-10-17T16:45:30;23.23;;;20.70;;
58196;SDS011;43999;51.660;5.616;2022-10-17T16:47:59;21.65;;;19.45;;
58196;SDS011;43999;51.660;5.616;2022-10-17T16:50:27;22.92;;;20.48;;
58196;SDS011;43999;51.660;5.616;2022-10-17T16:52:57;20.92;;;18.67;;
58196;SDS011;43999;51.660;5.616;2022-10-17T16:55:24;24.63;;;22.10;;
58196;SDS011;43999;51.660;5.616;2022-10-17T16:57:51;22.25;;;19.92;;
58196;SDS011;43999;51.660;5.616;2022-10-17T17:00:19;23.50;;;19.80;;
58196;SDS011;43999;51.660;5.616;2022-10-17T17:02:47;21.85;;;19.67;;
58196;SDS011;43999;51.660;5.616;2022-10-17T17:05:14;23.08;;;20.88;;
58196;SDS011;43999;51.660;5.616;2022-10-17T17:07:41;27.17;;;21.67;;
58196;SDS011;43999;51.660;5.616;2022-10-17T17:10:09;25.13;;;22.42;;
58196;SDS011;43999;51.660;5.616;2022-10-17T17:12:36;26.00;;;20.92;;
58196;SDS011;43999;51.660;5.616;2022-10-17T17:15:03;26.73;;;22.83;;
58196;SDS011;43999;51.660;5.616;2022-10-17T17:17:31;26.02;;;23.33;;
58196;SDS011;43999;51.660;5.616;2022-10-17T17:20:20;27.73;;;24.83;;
58196;SDS011;43999;51.660;5.616;2022-10-17T17:22:48;27.42;;;24.52;;
58196;SDS011;43999;51.660;5.616;2022-10-17T17:25:17;28.63;;;24.80;;
58196;SDS011;43999;51.660;5.616;2022-10-17T17:27:44;29.33;;;26.40;;
58196;SDS011;43999;51.660;5.616;2022-10-17T17:30:14;25.60;;;23.00;;
58196;SDS011;43999;51.660;5.616;2022-10-17T17:32:42;25.65;;;22.90;;
58196;SDS011;43999;51.660;5.616;2022-10-17T17:35:09;27.05;;;24.25;;
58196;SDS011;43999;51.660;5.616;2022-10-17T17:37:36;26.90;;;24.02;;
58196;SDS011;43999;51.660;5.616;2022-10-17T17:40:04;27.80;;;24.90;;